Time;durP1;ratioP1;P1;durP2;ratioP2;P2;SDS_P1;SDS_P2;PMS_P1;PMS_P2;Temp;Humidity;BMP_temperature;BMP_pressure;BME280_temperature;BME280_humidity;BME280_pressure;Samples;Min_cycle;Max_cycle;Signal;HPM_P1;HPM_P2
2023/12/26 00:02:16;;;;;;;1.45;1.30;;;;;9.50;98161.00;;;;5032984;28;20469;-64
2023/12/26 00:04:43;;;;;;;3.45;1.60;;;;;9.50;98144.00;;;;5033561;28;20041;-65
2023/12/26 00:07:09;;;;;;;2.45;1.40;;;;;9.50;98144.00;;;;5034006;28;20068;-64
2023/12/26 00:09:40;;;;;;;3.90;1.42;;;;;9.50;98147.00;;;;5034241;28;20044;-64
2023/12/26 00:12:07;;;;;;;1.60;1.50;;;;;9.50;98139.00;;;;5034518;28;20446;-64
2023/12/26 00:14:34;;;;;;;2.60;1.58;;;;;9.40;98142.00;;;;5033718;28;20041;-64
2023/12/26 00:17:00;;;;;;;3.83;2.20;;;;;9.40;98132.00;;;;5034409;28;20065;-64
2023/12/26 00:19:27;;;;;;;1.55;1.25;;;;;9.50;98135.00;;;;5033944;28;20509;-64
2023/12/26 00:21:54;;;;;;;2.30;1.45;;;;;9.40;98144.00;;;;5033940;28;20059;-64
2023/12/26 00:24:20;;;;;;;2.22;1.55;;;;;9.40;98140.00;;;;5033415;28;20050;-64
2023/12/26 00:26:47;;;;;;;2.60;1.48;;;;;9.40;98120.00;;;;5033765;28;20510;-64
2023/12/26 00:29:14;;;;;;;3.03;1.63;;;;;9.40;98131.00;;;;5033785;28;20049;-63
2023/12/26 00:31:41;;;;;;;1.67;1.58;;;;;9.40;98132.00;;;;5033881;28;20046;-64
2023/12/26 00:34:08;;;;;;;5.53;1.67;;;;;9.40;98127.00;;;;5033082;28;20060;-63
2023/12/26 00:36:35;;;;;;;3.75;1.60;;;;;9.40;98127.00;;;;5032261;28;20140;-65
2023/12/26 00:39:02;;;;;;;1.70;1.20;;;;;9.40;98121.00;;;;5032083;28;20045;-65
2023/12/26 00:41:29;;;;;;;1.60;1.50;;;;;9.30;98122.00;;;;5016063;28;20124;-64
2023/12/26 00:43:55;;;;;;;4.38;1.60;;;;;9.30;98127.00;;;;5032948;28;20563;-65
2023/12/26 00:46:22;;;;;;;2.42;1.45;;;;;9.30;98128.00;;;;5032079;28;20049;-65
2023/12/26 00:48:49;;;;;;;2.28;1.70;;;;;9.30;98124.00;;;;5033413;28;20467;-65
2023/12/26 00:51:16;;;;;;;1.50;1.40;;;;;9.30;98134.00;;;;5033403;28;20052;-64
2023/12/26 00:53:42;;;;;;;4.95;1.38;;;;;9.30;98130.00;;;;5032681;28;20117;-63
2023/12/26 00:56:09;;;;;;;1.50;1.30;;;;;9.30;98135.00;;;;5033288;28;20041;-64
2023/12/26 00:58:36;;;;;;;3.92;1.52;;;;;9.30;98126.00;;;;5033149;28;20041;-65
2023/12/26 01:01:03;;;;;;;6.68;1.90;;;;;9.30;98134.00;;;;5031878;28;20092;-65
2023/12/26 01:03:31;;;;;;;1.90;1.50;;;;;9.40;98136.00;;;;5032642;28;20069;-64
2023/12/26 01:05:58;;;;;;;1.30;1.00;;;;;9.40;98140.00;;;;5031871;28;20057;-64
2023/12/26 01:08:25;;;;;;;5.07;2.13;;;;;9.40;98141.00;;;;5031832;28;20153;-65
2023/12/26 01:10:51;;;;;;;1.08;1.02;;;;;9.40;98150.00;;;;5031736;28;20045;-63
2023/12/26 01:13:18;;;;;;;1.27;1.17;;;;;9.40;98150.00;;;;5031637;28;20046;-64
2023/12/26 01:15:44;;;;;;;1.98;1.00;;;;;9.40;98154.00;;;;5032597;28;20053;-63
2023/12/26 01:18:12;;;;;;;2.63;1.67;;;;;9.40;98151.00;;;;5032849;28;20042;-65
2023/12/26 01:20:38;;;;;;;3.38;1.05;;;;;9.50;98145.00;;;;5031087;28;20076;-63
2023/12/26 01:23:05;;;;;;;2.15;1.25;;;;;9.50;98159.00;;;;5032886;28;20045;-64
2023/12/26 01:25:32;;;;;;;2.28;1.40;;;;;9.50;98156.00;;;;5030984;28;20053;-63
2023/12/26 01:27:59;;;;;;;5.63;1.60;;;;;9.50;98173.00;;;;5031569;28;20053;-64
2023/12/26 01:30:26;;;;;;;5.15;1.40;;;;;9.50;98168.00;;;;5032748;28;20091;-63
2023/12/26 01:32:52;;;;;;;4.72;1.50;;;;;9.50;98166.00;;;;5032647;28;20041;-64
2023/12/26 01:35:19;;;;;;;6.70;1.85;;;;;9.60;98169.00;;;;5014353;28;20470;-64
2023/12/26 01:37:46;;;;;;;4.10;1.55;;;;;9.60;98169.00;;;;5032659;28;20076;-63
2023/12/26 01:40:13;;;;;;;4.22;1.75;;;;;9.70;98176.00;;;;5031267;28;20044;-65
2023/12/26 01:42:41;;;;;;;6.50;1.95;;;;;9.70;98162.00;;;;5014967;28;20041;-65
2023/12/26 01:45:08;;;;;;;5.82;2.55;;;;;9.70;98159.00;;;;5030723;28;20087;-64
2023/12/26 01:47:37;;;;;;;5.30;1.52;;;;;9.70;98168.00;;;;5032079;28;20494;-64
2023/12/26 01:50:04;;;;;;;7.20;1.75;;;;;9.70;98171.00;;;;5032381;28;20041;-66
2023/12/26 01:52:31;;;;;;;7.45;1.85;;;;;9.70;98180.00;;;;5032254;28;20041;-64
2023/12/26 01:54:59;;;;;;;7.70;2.63;;;;;9.70;98191.00;;;;5030450;28;20471;-65
2023/12/26 01:57:26;;;;;;;6.57;2.15;;;;;9.70;98192.00;;;;5032321;28;20049;-65
2023/12/26 01:59:53;;;;;;;6.82;2.10;;;;;9.70;98185.00;;;;5031037;28;20038;-65
2023/12/26 02:02:22;;;;;;;6.25;2.20;;;;;9.70;98184.00;;;;5030869;28;20045;-65
2023/12/26 02:04:49;;;;;;;5.22;1.65;;;;;9.70;98194.00;;;;5031679;28;20041;-64
2023/12/26 02:07:15;;;;;;;6.38;2.42;;;;;9.70;98182.00;;;;5032152;28;20127;-65
2023/12/26 02:09:42;;;;;;;4.15;2.08;;;;;9.70;98191.00;;;;5032007;28;20041;-65
2023/12/26 02:12:09;;;;;;;5.68;2.15;;;;;9.70;98191.00;;;;5030972;28;20128;-64
2023/12/26 02:14:36;;;;;;;7.53;2.15;;;;;9.70;98199.00;;;;5013720;28;20081;-65
2023/12/26 02:17:08;;;;;;;6.05;2.40;;;;;9.80;98189.00;;;;5031911;28;20091;-64
2023/12/26 02:19:41;;;;;;;9.00;2.28;;;;;9.80;98192.00;;;;5030947;28;20049;-61
2023/12/26 02:22:08;;;;;;;9.70;2.63;;;;;9.80;98199.00;;;;5031915;28;20065;-62
2023/12/26 02:24:35;;;;;;;10.05;2.10;;;;;9.70;98197.00;;;;5031419;28;20049;-61
2023/12/26 02:27:02;;;;;;;6.82;2.40;;;;;9.80;98200.00;;;;5032032;28;20053;-62
2023/12/26 02:29:31;;;;;;;4.13;1.92;;;;;9.80;98204.00;;;;5031937;28;20061;-61
2023/12/26 02:31:59;;;;;;;3.55;2.20;;;;;9.80;98196.00;;;;5032581;28;20498;-61
2023/12/26 02:34:25;;;;;;;10.07;2.70;;;;;9.70;98199.00;;;;5034262;28;20053;-62
2023/12/26 02:36:52;;;;;;;7.32;2.30;;;;;9.80;98201.00;;;;5034553;28;20048;-62
2023/12/26 02:39:19;;;;;;;6.07;2.08;;;;;9.80;98202.00;;;;5034669;28;20056;-62
2023/12/26 02:41:45;;;;;;;10.25;2.58;;;;;9.70;98199.00;;;;5035686;28;20046;-63
2023/12/26 02:44:12;;;;;;;10.68;2.67;;;;;9.70;98196.00;;;;5034029;28;20050;-63
2023/12/26 02:46:39;;;;;;;8.27;2.85;;;;;9.70;98196.00;;;;5034391;28;20144;-63
2023/12/26 02:49:05;;;;;;;3.78;2.03;;;;;9.70;98194.00;;;;5035625;28;20557;-62
2023/12/26 02:51:32;;;;;;;13.88;3.47;;;;;9.70;98192.00;;;;5035689;28;20045;-64
2023/12/26 02:53:58;;;;;;;9.07;2.53;;;;;9.70;98199.00;;;;5035085;28;20049;-63
2023/12/26 02:56:25;;;;;;;9.63;2.60;;;;;9.70;98198.00;;;;5034109;28;20103;-61
2023/12/26 02:58:52;;;;;;;8.90;2.97;;;;;9.70;98205.00;;;;5035671;28;20072;-61
2023/12/26 03:01:18;;;;;;;8.45;2.40;;;;;9.80;98209.00;;;;5034099;28;20042;-63
2023/12/26 03:03:45;;;;;;;6.70;2.50;;;;;9.80;98201.00;;;;5034794;28;20099;-61
2023/12/26 03:06:12;;;;;;;6.72;3.13;;;;;9.70;98185.00;;;;5034117;28;20056;-62
2023/12/26 03:08:38;;;;;;;7.35;2.33;;;;;9.70;98202.00;;;;5035379;28;20071;-61
2023/12/26 03:11:05;;;;;;;6.68;2.47;;;;;9.70;98196.00;;;;5033875;28;20053;-62
2023/12/26 03:13:32;;;;;;;13.20;2.97;;;;;9.70;98195.00;;;;5033410;28;20099;-61
2023/12/26 03:15:58;;;;;;;6.60;2.35;;;;;9.70;98193.00;;;;5035101;28;20136;-61
2023/12/26 03:18:25;;;;;;;7.57;2.22;;;;;9.70;98190.00;;;;5033694;28;20049;-64
2023/12/26 03:20:52;;;;;;;7.38;2.50;;;;;9.70;98168.00;;;;5033626;28;20052;-62
2023/12/26 03:23:18;;;;;;;7.65;2.25;;;;;9.70;98183.00;;;;5035002;28;20050;-62
2023/12/26 03:25:45;;;;;;;7.10;2.28;;;;;9.70;98182.00;;;;5034575;28;20095;-62
2023/12/26 03:28:11;;;;;;;6.40;1.90;;;;;9.70;98176.00;;;;5034941;28;20096;-63
2023/12/26 03:30:38;;;;;;;7.68;2.17;;;;;9.70;98185.00;;;;5033689;28;20103;-62
2023/12/26 03:33:06;;;;;;;8.43;2.20;;;;;9.80;98175.00;;;;5034848;28;20465;-63
2023/12/26 03:35:33;;;;;;;6.45;2.33;;;;;9.80;98176.00;;;;5034380;28;20041;-62
2023/12/26 03:37:59;;;;;;;10.48;2.80;;;;;9.80;98180.00;;;;5034609;28;20568;-63
2023/12/26 03:40:26;;;;;;;9.48;2.45;;;;;9.70;98178.00;;;;5033285;28;20081;-63
2023/12/26 03:42:54;;;;;;;8.80;1.90;;;;;9.70;98171.00;;;;5034228;28;20042;-62
2023/12/26 03:45:21;;;;;;;4.20;2.13;;;;;9.80;98178.00;;;;5032937;28;20418;-62
2023/12/26 03:47:48;;;;;;;7.75;2.22;;;;;9.80;98186.00;;;;5033211;28;20053;-63
2023/12/26 03:50:15;;;;;;;6.82;2.08;;;;;9.80;98190.00;;;;5033254;28;20136;-61
2023/12/26 03:52:41;;;;;;;9.95;2.65;;;;;9.70;98179.00;;;;5034936;28;20502;-61
2023/12/26 03:55:08;;;;;;;8.52;2.95;;;;;9.80;98179.00;;;;5032587;28;20049;-61
2023/12/26 03:57:36;;;;;;;11.10;2.72;;;;;9.80;98179.00;;;;5033109;28;20057;-61
2023/12/26 04:00:04;;;;;;;11.48;2.38;;;;;9.80;98176.00;;;;5033128;28;20410;-61
2023/12/26 04:02:40;;;;;;;6.97;2.35;;;;;9.80;98181.00;;;;5034364;28;20057;-63
2023/12/26 04:05:08;;;;;;;8.05;2.85;;;;;9.80;98182.00;;;;5032467;28;20505;-61
2023/12/26 04:07:36;;;;;;;8.68;1.85;;;;;9.80;98175.00;;;;5032841;28;20485;-61
2023/12/26 04:10:03;;;;;;;9.52;2.25;;;;;9.80;98182.00;;;;5032915;28;20080;-65
2023/12/26 04:12:31;;;;;;;9.20;2.35;;;;;9.80;98190.00;;;;5032950;28;20677;-61
2023/12/26 04:14:58;;;;;;;7.38;2.50;;;;;9.80;98190.00;;;;5032334;28;20056;-61
2023/12/26 04:17:25;;;;;;;7.50;2.10;;;;;9.80;98181.00;;;;5032977;28;20430;-62
2023/12/26 04:19:51;;;;;;;8.38;2.38;;;;;9.80;98191.00;;;;5033724;28;20072;-62
2023/12/26 04:22:19;;;;;;;5.53;2.20;;;;;9.90;98186.00;;;;5032601;28;20061;-63
2023/12/26 04:24:45;;;;;;;10.80;2.47;;;;;9.80;98195.00;;;;5031964;28;20057;-61
2023/12/26 04:27:12;;;;;;;7.47;2.08;;;;;9.80;98175.00;;;;5033913;28;20128;-61
2023/12/26 04:29:38;;;;;;;10.23;2.53;;;;;9.80;98195.00;;;;5032527;28;20045;-61
2023/12/26 04:32:06;;;;;;;10.00;2.38;;;;;9.80;98198.00;;;;5032406;28;20099;-62
2023/12/26 04:34:33;;;;;;;8.57;2.80;;;;;9.80;98191.00;;;;5033235;28;20053;-61
2023/12/26 04:36:59;;;;;;;6.82;2.15;;;;;9.80;98197.00;;;;5033612;28;20464;-62
2023/12/26 04:39:26;;;;;;;9.70;2.15;;;;;9.80;98194.00;;;;5032558;28;20056;-62
2023/12/26 04:41:52;;;;;;;9.68;2.20;;;;;9.80;98193.00;;;;5033489;28;20187;-61
2023/12/26 04:44:20;;;;;;;13.23;2.65;;;;;9.80;98185.00;;;;5031748;28;20049;-61
2023/12/26 04:46:47;;;;;;;8.60;2.25;;;;;9.90;98190.00;;;;5032062;28;20049;-62
2023/12/26 04:49:13;;;;;;;10.60;2.45;;;;;9.80;98196.00;;;;5032245;28;20069;-62
2023/12/26 04:51:40;;;;;;;7.70;2.17;;;;;9.80;98196.00;;;;5032157;28;20171;-62
2023/12/26 04:54:07;;;;;;;5.20;2.13;;;;;9.90;98199.00;;;;5031200;28;20425;-61
2023/12/26 04:56:33;;;;;;;7.15;2.33;;;;;9.90;98208.00;;;;5031585;28;20490;-61
2023/12/26 04:59:00;;;;;;;12.15;2.15;;;;;9.90;98207.00;;;;5032153;28;20483;-62
2023/12/26 05:01:27;;;;;;;15.23;3.15;;;;;9.90;98213.00;;;;5031812;28;20045;-61
2023/12/26 05:03:53;;;;;;;6.68;2.25;;;;;9.90;98221.00;;;;5032590;28;20059;-61
2023/12/26 05:06:20;;;;;;;8.55;2.38;;;;;9.90;98223.00;;;;5031682;28;20056;-62
2023/12/26 05:08:47;;;;;;;6.22;2.17;;;;;10.00;98218.00;;;;5033405;28;20052;-62
2023/12/26 05:11:22;;;;;;;5.70;1.95;;;;;9.90;98230.00;;;;5031865;28;20459;-64
2023/12/26 05:13:50;;;;;;;5.32;1.80;;;;;10.00;98230.00;;;;5031249;28;20418;-62
2023/12/26 05:16:17;;;;;;;11.00;3.20;;;;;10.00;98227.00;;;;5032918;28;20045;-64
2023/12/26 05:18:44;;;;;;;6.28;2.17;;;;;10.00;98238.00;;;;5031534;28;20076;-64
2023/12/26 05:21:21;;;;;;;6.45;1.85;;;;;9.90;98233.00;;;;5031560;28;20349;-64
2023/12/26 05:23:48;;;;;;;9.48;2.20;;;;;9.90;98234.00;;;;5031189;28;20115;-65
2023/12/26 05:26:15;;;;;;;11.50;2.00;;;;;9.90;98231.00;;;;5031400;28;20051;-64
2023/12/26 05:28:44;;;;;;;7.72;1.80;;;;;9.90;98236.00;;;;5031272;28;20133;-64
2023/12/26 05:31:10;;;;;;;10.80;2.33;;;;;9.80;98239.00;;;;5031505;28;20497;-64
2023/12/26 05:33:37;;;;;;;6.45;1.90;;;;;9.80;98242.00;;;;5032150;28;20116;-64
2023/12/26 05:36:06;;;;;;;13.88;2.50;;;;;9.80;98235.00;;;;5031342;28;20061;-64
2023/12/26 05:38:32;;;;;;;10.00;2.40;;;;;9.80;98252.00;;;;5014879;28;20041;-64
2023/12/26 05:41:02;;;;;;;7.03;1.77;;;;;9.80;98255.00;;;;5031104;28;20037;-64
2023/12/26 05:43:29;;;;;;;6.43;2.35;;;;;9.80;98256.00;;;;5030752;28;20049;-64
2023/12/26 05:45:56;;;;;;;7.43;1.88;;;;;9.80;98265.00;;;;5031177;28;20060;-64
2023/12/26 05:48:22;;;;;;;8.88;1.95;;;;;9.90;98263.00;;;;5031059;28;20061;-64
2023/12/26 05:50:49;;;;;;;7.00;2.40;;;;;9.80;98271.00;;;;5031207;28;20501;-65
2023/12/26 05:53:16;;;;;;;7.93;2.20;;;;;9.80;98282.00;;;;5031076;28;20136;-64
2023/12/26 05:55:42;;;;;;;5.72;2.33;;;;;9.80;98270.00;;;;5030414;28;20045;-64
2023/12/26 05:58:09;;;;;;;11.23;2.00;;;;;9.80;98284.00;;;;5032286;28;20414;-64
2023/12/26 06:00:36;;;;;;;7.50;2.33;;;;;9.80;98295.00;;;;5030911;28;20049;-64
2023/12/26 06:03:03;;;;;;;9.85;2.38;;;;;9.80;98285.00;;;;5030962;28;20047;-64
2023/12/26 06:05:30;;;;;;;7.65;1.92;;;;;9.80;98286.00;;;;5030637;28;20115;-64
2023/12/26 06:07:56;;;;;;;14.93;3.00;;;;;9.80;98298.00;;;;5030769;28;20052;-62
2023/12/26 06:10:23;;;;;;;11.10;2.25;;;;;9.70;98298.00;;;;5031978;28;20044;-62
2023/12/26 06:12:50;;;;;;;7.38;2.30;;;;;9.70;98303.00;;;;5031056;28;20053;-65
2023/12/26 06:15:17;;;;;;;12.10;2.10;;;;;9.60;98302.00;;;;5030234;28;20056;-62
2023/12/26 06:17:43;;;;;;;15.77;2.47;;;;;9.60;98304.00;;;;5030798;28;20050;-62
2023/12/26 06:20:14;;;;;;;12.27;2.72;;;;;9.60;98321.00;;;;5014651;28;20052;-62
2023/12/26 06:22:41;;;;;;;15.68;2.35;;;;;9.60;98311.00;;;;5030779;28;20108;-62
2023/12/26 06:25:08;;;;;;;6.63;2.28;;;;;9.60;98315.00;;;;5013753;28;20144;-62
2023/12/26 06:27:36;;;;;;;6.40;1.95;;;;;9.60;98325.00;;;;5014397;28;20053;-62
2023/12/26 06:30:04;;;;;;;10.48;2.40;;;;;9.60;98326.00;;;;5032016;28;20512;-63
2023/12/26 06:32:31;;;;;;;10.27;2.22;;;;;9.60;98326.00;;;;5030705;28;20052;-64
2023/12/26 06:34:58;;;;;;;9.48;3.22;;;;;9.60;98319.00;;;;5030192;28;20463;-62
2023/12/26 06:37:25;;;;;;;12.18;2.65;;;;;9.60;98325.00;;;;5030695;28;20052;-62
2023/12/26 06:39:52;;;;;;;9.15;3.40;;;;;9.60;98332.00;;;;5014405;28;20132;-62
2023/12/26 06:42:18;;;;;;;11.55;2.70;;;;;9.50;98330.00;;;;5030543;28;20087;-63
2023/12/26 06:44:45;;;;;;;14.43;3.08;;;;;9.60;98335.00;;;;5029998;28;20049;-64
2023/12/26 06:47:12;;;;;;;9.57;2.55;;;;;9.50;98332.00;;;;5030928;28;20045;-62
2023/12/26 06:49:44;;;;;;;9.75;2.22;;;;;9.60;98345.00;;;;5014215;28;20099;-61
2023/12/26 06:52:14;;;;;;;8.68;2.10;;;;;9.60;98341.00;;;;5030570;28;20045;-62
2023/12/26 06:54:41;;;;;;;8.95;3.28;;;;;9.50;98342.00;;;;5013700;28;20084;-62
2023/12/26 06:57:15;;;;;;;11.10;2.50;;;;;9.60;98342.00;;;;5030477;28;20045;-62
2023/12/26 06:59:47;;;;;;;9.35;2.20;;;;;9.50;98353.00;;;;5030476;28;20140;-62
2023/12/26 07:02:14;;;;;;;3.15;1.80;;;;;9.50;98348.00;;;;5013796;28;20045;-64
2023/12/26 07:04:43;;;;;;;6.53;2.00;;;;;9.50;98349.00;;;;5029991;28;20056;-64
2023/12/26 07:07:11;;;;;;;8.07;1.90;;;;;9.50;98353.00;;;;5031788;28;20091;-64
2023/12/26 07:09:38;;;;;;;9.07;2.25;;;;;9.50;98361.00;;;;5031543;28;20120;-62
2023/12/26 07:12:05;;;;;;;3.90;1.60;;;;;9.50;98357.00;;;;5030486;28;20527;-63
2023/12/26 07:14:32;;;;;;;8.05;2.25;;;;;9.50;98353.00;;;;5031004;28;20514;-62
2023/12/26 07:16:58;;;;;;;8.13;2.85;;;;;9.40;98366.00;;;;5031196;28;20042;-63
2023/12/26 07:19:25;;;;;;;5.07;2.05;;;;;9.40;98375.00;;;;5034355;28;20454;-62
2023/12/26 07:21:52;;;;;;;7.18;2.33;;;;;9.40;98377.00;;;;5034832;28;20037;-62
2023/12/26 07:24:20;;;;;;;5.30;1.88;;;;;9.40;98381.00;;;;5034355;28;20048;-63
2023/12/26 07:26:47;;;;;;;6.78;2.20;;;;;9.40;98380.00;;;;5034992;28;20096;-62
2023/12/26 07:29:14;;;;;;;8.95;2.55;;;;;9.40;98382.00;;;;5033706;28;20050;-62
2023/12/26 07:31:41;;;;;;;8.90;2.20;;;;;9.40;98380.00;;;;5033508;28;20148;-63
2023/12/26 07:34:10;;;;;;;8.77;2.00;;;;;9.40;98385.00;;;;5034217;28;20045;-62
2023/12/26 07:36:37;;;;;;;5.18;1.70;;;;;9.40;98392.00;;;;5034812;28;20049;-62
2023/12/26 07:39:05;;;;;;;5.78;2.00;;;;;9.40;98403.00;;;;5033568;28;20055;-62
2023/12/26 07:41:31;;;;;;;4.88;1.65;;;;;9.40;98395.00;;;;5033659;28;20045;-63
2023/12/26 07:43:59;;;;;;;4.80;1.92;;;;;9.40;98403.00;;;;5034040;28;20042;-61
2023/12/26 07:46:25;;;;;;;5.65;1.85;;;;;9.40;98409.00;;;;5034650;28;20049;-63
2023/12/26 07:48:52;;;;;;;3.70;1.50;;;;;9.40;98417.00;;;;5033805;28;20065;-62
2023/12/26 07:51:19;;;;;;;2.63;1.65;;;;;9.40;98425.00;;;;5035193;28;20046;-62
2023/12/26 07:53:46;;;;;;;6.35;1.92;;;;;9.40;98425.00;;;;5034468;28;20568;-62
2023/12/26 07:56:13;;;;;;;4.97;1.92;;;;;9.40;98430.00;;;;5033806;28;20119;-62
2023/12/26 07:58:40;;;;;;;6.18;2.38;;;;;9.40;98445.00;;;;5033097;28;20049;-64
2023/12/26 08:01:06;;;;;;;4.75;2.28;;;;;9.40;98440.00;;;;5034422;28;20073;-63
2023/12/26 08:03:33;;;;;;;7.68;3.17;;;;;9.40;98453.00;;;;5033782;28;20033;-62
2023/12/26 08:05:59;;;;;;;8.13;2.10;;;;;9.30;98453.00;;;;5016747;28;20041;-62
2023/12/26 08:08:26;;;;;;;5.22;2.00;;;;;9.30;98458.00;;;;5032849;28;20065;-63
2023/12/26 08:10:53;;;;;;;5.88;2.30;;;;;9.40;98467.00;;;;5034172;28;20123;-62
2023/12/26 08:13:19;;;;;;;6.47;2.03;;;;;9.40;98475.00;;;;5034058;28;20067;-63
2023/12/26 08:15:46;;;;;;;4.05;1.55;;;;;9.30;98472.00;;;;5032497;28;20223;-62
2023/12/26 08:18:12;;;;;;;6.82;2.08;;;;;9.30;98463.00;;;;5033868;28;20512;-63
2023/12/26 08:20:42;;;;;;;4.53;1.98;;;;;9.40;98458.00;;;;5034010;28;20038;-62
2023/12/26 08:23:09;;;;;;;2.15;1.55;;;;;9.40;98458.00;;;;5032870;28;20054;-63
2023/12/26 08:25:37;;;;;;;5.60;1.98;;;;;9.40;98461.00;;;;5015654;28;20499;-62
2023/12/26 08:28:04;;;;;;;1.77;1.45;;;;;9.40;98460.00;;;;5032806;28;20483;-62
2023/12/26 08:30:31;;;;;;;7.53;2.20;;;;;9.40;98463.00;;;;5031393;28;20516;-63
2023/12/26 08:33:02;;;;;;;3.13;1.40;;;;;9.40;98469.00;;;;5032487;28;20410;-62
2023/12/26 08:35:31;;;;;;;3.15;1.38;;;;;9.40;98473.00;;;;5033279;28;20056;-63
2023/12/26 08:37:57;;;;;;;2.30;1.52;;;;;9.40;98475.00;;;;5016087;28;20119;-63
2023/12/26 08:40:24;;;;;;;1.95;1.20;;;;;9.40;98466.00;;;;5034078;28;20057;-63
2023/12/26 08:42:51;;;;;;;2.40;1.23;;;;;9.40;98479.00;;;;5033685;28;20585;-62
2023/12/26 08:45:17;;;;;;;2.45;1.35;;;;;9.40;98482.00;;;;5015431;28;20510;-63
2023/12/26 08:47:45;;;;;;;2.75;1.35;;;;;9.40;98477.00;;;;5032324;28;20065;-62
2023/12/26 08:50:12;;;;;;;1.90;1.30;;;;;9.40;98490.00;;;;5033570;28;20507;-63
2023/12/26 08:52:38;;;;;;;1.48;0.90;;;;;9.40;98497.00;;;;5032047;28;20042;-63
2023/12/26 08:55:05;;;;;;;2.85;1.00;;;;;9.40;98502.00;;;;5032818;28;20107;-62
2023/12/26 08:57:32;;;;;;;2.85;1.00;;;;;9.40;98505.00;;;;5032252;28;20099;-62
2023/12/26 09:00:00;;;;;;;1.13;0.85;;;;;9.40;98517.00;;;;5032039;28;20518;-62
2023/12/26 09:02:26;;;;;;;1.55;1.25;;;;;9.40;98513.00;;;;5033525;28;20487;-62
2023/12/26 09:04:53;;;;;;;2.55;1.35;;;;;9.50;98510.00;;;;5032674;28;20099;-63
2023/12/26 09:07:20;;;;;;;1.27;0.93;;;;;9.50;98526.00;;;;5031768;28;20574;-62
2023/12/26 09:09:46;;;;;;;2.40;1.13;;;;;9.60;98525.00;;;;5031902;28;20052;-63
2023/12/26 09:12:13;;;;;;;2.00;1.20;;;;;9.60;98526.00;;;;5031924;28;20095;-62
2023/12/26 09:14:40;;;;;;;1.23;1.08;;;;;9.60;98524.00;;;;5032565;28;20509;-62
2023/12/26 09:17:07;;;;;;;1.30;1.20;;;;;9.60;98527.00;;;;5032950;28;20038;-60
2023/12/26 09:19:34;;;;;;;2.03;1.10;;;;;9.60;98526.00;;;;5032813;28;20047;-63
2023/12/26 09:22:00;;;;;;;1.25;1.10;;;;;9.60;98525.00;;;;5031419;28;20042;-65
2023/12/26 09:24:27;;;;;;;0.95;0.93;;;;;9.50;98527.00;;;;5030867;28;20079;-63
2023/12/26 09:26:54;;;;;;;0.82;0.82;;;;;9.50;98531.00;;;;5032797;28;20410;-62
2023/12/26 09:29:20;;;;;;;1.10;0.75;;;;;9.50;98541.00;;;;5031723;28;20667;-62
2023/12/26 09:31:47;;;;;;;1.10;0.93;;;;;9.50;98538.00;;;;5031489;28;20048;-63
2023/12/26 09:34:14;;;;;;;1.20;1.10;;;;;9.50;98546.00;;;;5031963;28;20041;-62
2023/12/26 09:36:40;;;;;;;3.38;1.20;;;;;9.40;98570.00;;;;5015357;28;20513;-62
2023/12/26 09:39:07;;;;;;;1.23;0.93;;;;;9.40;98559.00;;;;5032654;28;20073;-63
2023/12/26 09:41:34;;;;;;;1.80;1.00;;;;;9.40;98572.00;;;;5032200;28;20076;-62
2023/12/26 09:44:00;;;;;;;2.35;1.25;;;;;9.50;98571.00;;;;5032125;28;20042;-61
2023/12/26 09:46:28;;;;;;;1.95;1.27;;;;;9.60;98567.00;;;;5032341;28;20127;-62
2023/12/26 09:48:55;;;;;;;1.50;1.40;;;;;9.60;98579.00;;;;5031035;28;20120;-62
2023/12/26 09:51:23;;;;;;;1.58;1.42;;;;;9.60;98582.00;;;;5031286;28;20049;-62
2023/12/26 09:53:57;;;;;;;3.58;1.40;;;;;9.60;98582.00;;;;5031098;28;20124;-63
2023/12/26 09:56:25;;;;;;;2.85;1.40;;;;;9.70;98579.00;;;;5031055;28;20095;-62
2023/12/26 09:58:54;;;;;;;1.70;1.05;;;;;9.70;98590.00;;;;5031203;28;20089;-65
2023/12/26 10:01:21;;;;;;;2.00;1.08;;;;;9.80;98588.00;;;;5032105;28;20044;-62
2023/12/26 10:03:48;;;;;;;2.65;1.15;;;;;9.80;98596.00;;;;5014034;28;20422;-64
2023/12/26 10:06:15;;;;;;;1.50;0.90;;;;;9.90;98581.00;;;;5030746;28;20175;-62
2023/12/26 10:08:42;;;;;;;2.67;1.13;;;;;9.80;98597.00;;;;5032088;28;20049;-61
2023/12/26 10:11:13;;;;;;;2.83;1.15;;;;;9.80;98594.00;;;;5032315;28;20049;-62
2023/12/26 10:13:45;;;;;;;2.95;1.38;;;;;9.70;98599.00;;;;5031706;28;20053;-62
2023/12/26 10:16:12;;;;;;;2.30;1.40;;;;;9.70;98617.00;;;;5030938;28;20059;-62
2023/12/26 10:18:39;;;;;;;0.88;0.88;;;;;9.70;98618.00;;;;5030967;28;20080;-63
2023/12/26 10:21:06;;;;;;;1.55;1.20;;;;;9.60;98620.00;;;;5032019;28;20073;-62
2023/12/26 10:23:33;;;;;;;1.40;1.20;;;;;9.60;98621.00;;;;5030503;28;20312;-62
2023/12/26 10:26:01;;;;;;;3.67;1.42;;;;;9.70;98628.00;;;;5031026;28;20132;-62
2023/12/26 10:28:28;;;;;;;2.75;1.50;;;;;9.70;98624.00;;;;5030844;28;20091;-62
2023/12/26 10:30:55;;;;;;;4.93;1.83;;;;;9.80;98614.00;;;;5032468;28;20445;-62
2023/12/26 10:33:28;;;;;;;1.42;1.08;;;;;9.90;98617.00;;;;5030506;28;20037;-69
2023/12/26 10:36:05;;;;;;;2.63;1.38;;;;;9.90;98610.00;;;;5030801;28;20067;-63
2023/12/26 10:38:33;;;;;;;1.75;1.20;;;;;10.00;98602.00;;;;5031901;28;20163;-63
2023/12/26 10:41:04;;;;;;;2.42;1.17;;;;;10.00;98592.00;;;;5031992;28;20071;-64
2023/12/26 10:43:32;;;;;;;2.17;1.35;;;;;10.10;98606.00;;;;5030554;28;20440;-62
2023/12/26 10:46:01;;;;;;;2.38;1.35;;;;;10.20;98607.00;;;;5032036;28;20120;-63
2023/12/26 10:48:33;;;;;;;2.15;1.10;;;;;10.20;98607.00;;;;5031916;28;20049;-62
2023/12/26 10:51:00;;;;;;;1.67;1.00;;;;;10.30;98594.00;;;;5032069;28;20057;-66
2023/12/26 10:53:37;;;;;;;1.15;0.90;;;;;10.30;98593.00;;;;5031631;28;20045;-63
2023/12/26 10:56:06;;;;;;;3.00;2.22;;;;;10.30;98591.00;;;;5035897;28;20038;-63
2023/12/26 10:58:34;;;;;;;1.88;1.05;;;;;10.30;98592.00;;;;5017980;28;20054;-63
2023/12/26 11:01:01;;;;;;;2.92;1.80;;;;;10.40;98592.00;;;;5035716;28;20046;-63
2023/12/26 11:03:28;;;;;;;2.85;1.60;;;;;10.40;98580.00;;;;5033699;28;20510;-63
2023/12/26 11:05:55;;;;;;;2.08;1.30;;;;;10.40;98588.00;;;;5034182;28;20127;-62
2023/12/26 11:08:22;;;;;;;2.40;1.88;;;;;10.40;98581.00;;;;5034167;28;20063;-63
2023/12/26 11:10:49;;;;;;;3.15;1.80;;;;;10.40;98589.00;;;;5034349;28;20037;-63
2023/12/26 11:13:16;;;;;;;2.67;1.08;;;;;10.50;98587.00;;;;5034372;28;20474;-62
2023/12/26 11:15:44;;;;;;;1.25;1.10;;;;;10.60;98586.00;;;;5034940;28;20228;-62
2023/12/26 11:18:10;;;;;;;1.10;1.00;;;;;10.60;98588.00;;;;5035254;28;20041;-63
2023/12/26 11:20:38;;;;;;;1.73;1.20;;;;;10.60;98605.00;;;;5017686;28;20096;-62
2023/12/26 11:23:05;;;;;;;1.30;1.17;;;;;10.60;98609.00;;;;5033940;28;20052;-65
2023/12/26 11:25:31;;;;;;;2.97;1.40;;;;;10.60;98612.00;;;;5033526;28;20073;-63
2023/12/26 11:27:59;;;;;;;3.88;1.73;;;;;10.70;98622.00;;;;5017475;28;20049;-66
2023/12/26 11:30:26;;;;;;;3.65;1.50;;;;;10.60;98609.00;;;;5035151;28;20556;-63
2023/12/26 11:32:53;;;;;;;1.75;1.48;;;;;10.60;98611.00;;;;5034933;28;20041;-62
2023/12/26 11:35:20;;;;;;;3.63;2.00;;;;;10.60;98627.00;;;;5033110;28;20053;-63
2023/12/26 11:37:49;;;;;;;3.33;2.58;;;;;10.60;98627.00;;;;5017157;28;20050;-65
2023/12/26 11:40:16;;;;;;;4.22;2.60;;;;;10.60;98626.00;;;;5034939;28;20051;-64
2023/12/26 11:42:43;;;;;;;2.50;1.67;;;;;10.60;98627.00;;;;5034808;28;20045;-65
2023/12/26 11:45:13;;;;;;;3.25;2.00;;;;;10.60;98646.00;;;;5032988;28;20074;-64
2023/12/26 11:47:40;;;;;;;4.10;2.60;;;;;10.50;98629.00;;;;5034605;28;20235;-65
2023/12/26 11:50:07;;;;;;;5.65;3.25;;;;;10.50;98636.00;;;;5034657;28;20034;-65
2023/12/26 11:52:34;;;;;;;3.05;2.10;;;;;10.60;98632.00;;;;5034691;28;20048;-64
2023/12/26 11:55:01;;;;;;;2.05;1.58;;;;;10.50;98623.00;;;;5034126;28;20099;-63
2023/12/26 11:57:28;;;;;;;1.42;1.30;;;;;10.40;98609.00;;;;5034689;28;20475;-63
2023/12/26 11:59:54;;;;;;;3.88;1.33;;;;;10.50;98617.00;;;;5033204;28;20056;-63
2023/12/26 12:02:21;;;;;;;3.97;1.38;;;;;10.50;98619.00;;;;5034285;28;20052;-62
2023/12/26 12:04:48;;;;;;;2.85;1.40;;;;;10.50;98640.00;;;;5032631;28;20069;-62
2023/12/26 12:07:14;;;;;;;1.63;1.27;;;;;10.50;98647.00;;;;5033282;28;20053;-63
2023/12/26 12:09:41;;;;;;;2.13;1.77;;;;;10.50;98643.00;;;;5033320;28;20512;-63
2023/12/26 12:12:07;;;;;;;3.05;1.90;;;;;10.60;98643.00;;;;5033062;28;20056;-62
2023/12/26 12:14:34;;;;;;;3.35;2.30;;;;;10.80;98639.00;;;;5033635;28;20410;-65
2023/12/26 12:17:10;;;;;;;3.15;1.77;;;;;10.90;98646.00;;;;5032922;28;20556;-63
2023/12/26 12:19:37;;;;;;;4.22;2.20;;;;;10.90;98647.00;;;;5034260;28;20099;-63
2023/12/26 12:22:04;;;;;;;3.83;2.75;;;;;10.90;98642.00;;;;5034156;28;20045;-63
2023/12/26 12:24:30;;;;;;;3.50;2.60;;;;;10.90;98645.00;;;;5032255;28;20060;-65